ENFB/FBU METAR and TAF weather

Enter ICAO airport designator
Station Type Date Time Source
ENFB METAR 2018/12/13 15:20 UTC NOAA

ENFB 131520Z AUTO 17037KT 9999NDV -SHRA BKN017/// 06/03 Q1025 W///S6


Station Type Date Time Source
ENFB Decoded METAR 2018/12/13 15:20 UTC NOAA

Oslo / Fornebu, Norway (ENFB) 59-54N 010-38E 17M
Dec 13, 2018 - 10:20 AM EST / 2018.12.13 1520 UTC
Wind: from the S (170 degrees) at 43 MPH (37 KT):0
Sky conditions: mostly cloudy
Weather: light rain showers
Temperature: 42 F (6 C)
Dew Point: 37 F (3 C)
Relative Humidity: 81%
Pressure (altimeter): 30.27 in. Hg (1025 hPa)
ob: ENFB 131520Z AUTO 17037KT 9999NDV -SHRA BKN017/// 06/03 Q1025 W///S6
cycle: 15

Station Type Date Time Source
ENFB TAF UTC NOAA

Error!


Example: see airport list